Time;durP1;ratioP1;P1;durP2;ratioP2;P2;SDS_P1;SDS_P2;PMS_P1;PMS_P2;Temp;Humidity;BMP_temperature;BMP_pressure;BME280_temperature;BME280_humidity;BME280_pressure;Samples;Min_cycle;Max_cycle;Signal;HPM_P1;HPM_P2
2022/01/29 00:01:23;;;;;;;51.63;22.10;;;;;;;5.10;91.96;102866.28;5012369;28;20124;-77
2022/01/29 00:03:49;;;;;;;52.95;22.60;;;;;;;5.10;92.01;102856.38;5015774;28;20117;-77
2022/01/29 00:06:14;;;;;;;56.72;22.58;;;;;;;5.10;91.80;102842.88;5023843;28;20041;-78
2022/01/29 00:08:39;;;;;;;57.75;24.80;;;;;;;5.14;91.88;102837.44;5022768;28;20079;-77
2022/01/29 00:11:12;;;;;;;65.22;24.17;;;;;;;5.10;91.78;102826.69;5006466;28;20053;-74
2022/01/29 00:13:38;;;;;;;55.75;23.70;;;;;;;5.16;91.82;102822.09;5013035;28;20061;-77
2022/01/29 00:16:03;;;;;;;55.70;22.38;;;;;;;5.15;91.88;102829.31;5006332;28;20033;-78
2022/01/29 00:18:29;;;;;;;59.92;22.45;;;;;;;5.18;92.17;102836.47;5007220;28;20033;-78
2022/01/29 00:20:54;;;;;;;55.33;22.42;;;;;;;5.18;91.96;102837.34;5019260;28;20030;-78
2022/01/29 00:23:19;;;;;;;62.85;23.23;;;;;;;5.21;91.69;102821.09;5024104;28;20033;-78
2022/01/29 00:25:45;;;;;;;58.67;22.02;;;;;;;5.22;91.97;102832.75;5024492;28;20493;-78
2022/01/29 00:28:12;;;;;;;56.05;23.98;;;;;;;5.22;91.64;102809.41;5019149;28;20038;-79
2022/01/29 00:30:41;;;;;;;49.97;20.92;;;;;;;5.23;91.83;102821.09;5015535;28;20037;-77
2022/01/29 00:33:07;;;;;;;64.57;22.75;;;;;;;5.23;91.48;102818.38;5025173;28;20037;-78
2022/01/29 00:35:32;;;;;;;55.55;22.58;;;;;;;5.26;91.92;102818.31;5019422;28;20057;-79
2022/01/29 00:37:57;;;;;;;66.65;23.05;;;;;;;5.25;91.75;102794.94;5022333;28;20043;-78
2022/01/29 00:40:23;;;;;;;65.93;24.08;;;;;;;5.23;91.74;102804.91;5021064;28;20362;-79
2022/01/29 00:42:49;;;;;;;57.95;22.85;;;;;;;5.26;91.93;102810.22;5020394;28;20036;-80
2022/01/29 00:45:15;;;;;;;55.97;22.85;;;;;;;5.29;91.76;102807.47;5023384;28;20453;-79
2022/01/29 00:47:41;;;;;;;64.22;23.02;;;;;;;5.30;91.74;102820.91;5027201;28;20033;-74
2022/01/29 00:50:07;;;;;;;55.90;23.33;;;;;;;5.30;91.43;102812.81;5025166;28;20037;-78
2022/01/29 00:52:32;;;;;;;54.22;23.75;;;;;;;5.32;91.44;102807.41;5021179;28;20026;-78
2022/01/29 00:54:58;;;;;;;55.70;22.77;;;;;;;5.30;91.30;102798.44;5012147;28;20041;-77
2022/01/29 00:57:24;;;;;;;54.15;22.98;;;;;;;5.32;91.81;102797.50;5023771;28;20017;-78
2022/01/29 00:59:49;;;;;;;57.60;23.00;;;;;;;5.31;91.51;102793.00;5017381;28;20057;-78
2022/01/29 01:02:14;;;;;;;50.65;21.77;;;;;;;5.33;91.67;102795.69;5026329;28;20038;-77
2022/01/29 01:04:40;;;;;;;51.10;22.45;;;;;;;5.33;91.42;102787.59;5027095;28;20401;-76
2022/01/29 01:07:07;;;;;;;59.28;23.58;;;;;;;5.34;92.13;102775.88;5020241;28;20022;-77
2022/01/29 01:09:34;;;;;;;56.22;23.13;;;;;;;5.33;92.08;102774.09;5019366;28;20508;-79
2022/01/29 01:11:59;;;;;;;52.97;22.20;;;;;;;5.34;91.78;102757.88;5018454;28;20036;-78
2022/01/29 01:14:25;;;;;;;57.50;22.70;;;;;;;5.32;92.06;102751.63;5011165;28;20043;-79
2022/01/29 01:16:50;;;;;;;56.83;23.95;;;;;;;5.32;92.08;102754.34;5026806;28;20025;-78
2022/01/29 01:19:15;;;;;;;55.85;23.48;;;;;;;5.32;92.31;102751.63;5027448;28;20018;-77
2022/01/29 01:21:40;;;;;;;58.55;24.13;;;;;;;5.34;92.72;102743.50;5022225;28;20442;-78
2022/01/29 01:24:06;;;;;;;57.60;23.70;;;;;;;5.31;92.95;102728.25;5022309;28;20026;-73
2022/01/29 01:26:31;;;;;;;50.70;23.38;;;;;;;5.32;92.54;102718.38;5015908;28;20013;-78
2022/01/29 01:28:57;;;;;;;62.38;26.08;;;;;;;5.31;92.57;102716.56;5021322;28;20046;-78
2022/01/29 01:31:22;;;;;;;60.60;22.80;;;;;;;5.31;92.60;102712.03;5027154;28;20025;-74
2022/01/29 01:33:48;;;;;;;53.15;23.42;;;;;;;5.33;93.04;102712.91;5026265;28;20064;-78
2022/01/29 01:36:17;;;;;;;56.30;26.80;;;;;;;5.30;92.85;102704.00;5027763;28;20025;-78
2022/01/29 01:38:50;;;;;;;61.75;24.92;;;;;;;5.30;93.23;102698.59;5022399;28;20026;-78
2022/01/29 01:41:21;;;;;;;57.65;24.02;;;;;;;5.30;93.15;102704.00;5023414;28;20025;-78
2022/01/29 01:43:47;;;;;;;61.45;25.30;;;;;;;5.29;93.33;102703.09;5018798;28;20064;-79
2022/01/29 01:46:12;;;;;;;52.08;23.73;;;;;;;5.29;93.62;102713.91;5025151;28;20385;-78
2022/01/29 01:48:37;;;;;;;51.22;23.77;;;;;;;5.28;93.44;102713.94;5028587;28;20041;-73
2022/01/29 01:51:03;;;;;;;56.35;22.70;;;;;;;5.27;93.74;102701.34;5026851;28;20072;-78
2022/01/29 01:53:29;;;;;;;53.63;24.00;;;;;;;5.26;94.16;102699.56;5015464;28;20057;-77
2022/01/29 01:55:54;;;;;;;61.10;23.48;;;;;;;5.24;94.16;102683.44;5021421;28;20388;-78
2022/01/29 01:58:19;;;;;;;50.70;23.00;;;;;;;5.22;94.21;102682.59;5012705;28;20123;-77
2022/01/29 02:00:44;;;;;;;56.47;24.38;;;;;;;5.22;94.63;102678.97;5018929;28;20053;-78
2022/01/29 02:03:10;;;;;;;60.33;24.08;;;;;;;5.19;94.75;102677.25;5020682;28;20042;-77
2022/01/29 02:05:36;;;;;;;49.60;22.10;;;;;;;5.22;95.00;102681.66;5007714;28;20527;-78
2022/01/29 02:08:02;;;;;;;53.85;25.23;;;;;;;5.18;94.95;102670.06;5023445;28;20044;-79
2022/01/29 02:10:28;;;;;;;50.53;22.95;;;;;;;5.18;94.88;102675.47;5017429;28;20108;-77
2022/01/29 02:12:59;;;;;;;51.60;22.30;;;;;;;5.18;95.12;102663.78;5023099;28;20108;-78
2022/01/29 02:15:25;;;;;;;47.88;20.90;;;;;;;5.17;95.00;102659.28;5012970;28;20617;-73
2022/01/29 02:17:51;;;;;;;54.25;23.13;;;;;;;5.16;95.15;102661.09;5029385;28;20473;-77
2022/01/29 02:20:30;;;;;;;49.75;22.33;;;;;;;5.14;95.17;102664.78;5028128;28;20033;-78
2022/01/29 02:22:57;;;;;;;49.70;21.15;;;;;;;5.15;95.20;102658.44;5016931;28;20612;-78
2022/01/29 02:25:36;;;;;;;50.03;21.65;;;;;;;5.15;95.26;102655.75;5008869;28;20033;-78
2022/01/29 02:28:06;;;;;;;51.65;21.77;;;;;;;5.15;95.63;102653.06;5019227;28;20054;-76
2022/01/29 02:30:34;;;;;;;50.38;20.88;;;;;;;5.15;95.66;102647.66;5026671;28;20026;-77
2022/01/29 02:33:04;;;;;;;48.97;21.30;;;;;;;5.12;95.65;102646.78;5022453;28;20037;-77
2022/01/29 02:35:29;;;;;;;44.08;20.35;;;;;;;5.14;95.87;102643.19;5025111;28;20071;-78
2022/01/29 02:37:56;;;;;;;49.60;23.23;;;;;;;5.11;95.85;102636.03;5018740;28;20041;-78
2022/01/29 02:40:25;;;;;;;44.70;22.15;;;;;;;5.10;96.12;102637.84;5020758;28;20056;-78
2022/01/29 02:42:53;;;;;;;49.65;20.48;;;;;;;5.13;96.13;102634.22;5023069;28;20493;-73
2022/01/29 02:45:19;;;;;;;46.78;20.67;;;;;;;5.12;96.20;102632.41;5008290;28;20528;-74
2022/01/29 02:47:44;;;;;;;47.60;21.70;;;;;;;5.13;96.15;102639.59;5022211;28;20021;-78
2022/01/29 02:50:09;;;;;;;43.92;19.58;;;;;;;5.14;96.21;102635.97;5027064;28;20021;-77
2022/01/29 02:52:35;;;;;;;44.72;20.13;;;;;;;5.14;96.66;102627.88;5017081;28;20434;-73
2022/01/29 02:55:01;;;;;;;47.03;20.80;;;;;;;5.14;96.41;102616.22;5017679;28;20025;-79
2022/01/29 02:57:27;;;;;;;43.47;18.42;;;;;;;5.14;96.16;102619.78;5013758;28;20037;-76
2022/01/29 02:59:53;;;;;;;51.50;20.95;;;;;;;5.15;95.99;102615.28;5026759;28;20026;-77
2022/01/29 03:02:19;;;;;;;42.90;19.17;;;;;;;5.16;96.49;102625.16;5016499;28;20479;-77
2022/01/29 03:04:44;;;;;;;45.40;20.35;;;;;;;5.15;96.47;102612.59;5027220;28;20033;-78
2022/01/29 03:07:09;;;;;;;54.00;22.33;;;;;;;5.11;96.46;102609.94;5027090;28;20033;-79
2022/01/29 03:09:34;;;;;;;41.45;18.83;;;;;;;5.15;96.50;102615.28;5022635;28;20398;-78
2022/01/29 03:12:00;;;;;;;43.38;21.60;;;;;;;5.16;96.62;102617.06;5015719;28;20227;-78
2022/01/29 03:14:25;;;;;;;46.28;19.52;;;;;;;5.17;96.33;102608.91;5013691;28;20061;-72
2022/01/29 03:16:50;;;;;;;44.60;18.92;;;;;;;5.18;96.48;102602.63;5027909;28;20029;-77
2022/01/29 03:19:16;;;;;;;45.22;20.33;;;;;;;5.17;96.80;102603.53;5025736;28;20079;-77
2022/01/29 03:21:41;;;;;;;49.13;21.08;;;;;;;5.17;96.48;102597.25;5026148;28;20680;-78
2022/01/29 03:24:06;;;;;;;52.85;23.17;;;;;;;5.18;96.51;102590.94;5027598;28;20033;-73
2022/01/29 03:26:31;;;;;;;45.45;20.38;;;;;;;5.19;96.71;102593.59;5008439;28;20030;-77
2022/01/29 03:28:57;;;;;;;49.72;21.10;;;;;;;5.19;96.56;102580.13;5007690;28;20022;-78
2022/01/29 03:31:26;;;;;;;49.28;20.05;;;;;;;5.20;96.93;102584.59;5021524;28;20025;-74
2022/01/29 03:33:52;;;;;;;40.63;19.02;;;;;;;5.21;96.67;102580.94;5013481;28;20209;-77
2022/01/29 03:36:17;;;;;;;49.72;21.35;;;;;;;5.22;96.70;102584.53;5025739;28;20567;-74
2022/01/29 03:38:42;;;;;;;48.72;21.42;;;;;;;5.22;97.19;102582.75;5024996;28;20057;-78
2022/01/29 03:41:09;;;;;;;45.47;21.27;;;;;;;5.26;97.01;102578.16;5013280;28;20044;-72
2022/01/29 03:43:42;;;;;;;58.22;22.27;;;;;;;5.25;96.80;102571.88;5015713;28;20048;-77
2022/01/29 03:46:07;;;;;;;51.45;19.95;;;;;;;5.25;96.74;102561.09;5026467;28;20022;-74
2022/01/29 03:48:32;;;;;;;51.25;21.80;;;;;;;5.28;96.90;102557.44;5026789;28;20031;-81
2022/01/29 03:50:58;;;;;;;57.45;22.60;;;;;;;5.28;97.00;102569.13;5026822;28;20033;-79
2022/01/29 03:53:23;;;;;;;56.72;22.35;;;;;;;5.29;96.81;102570.88;5015248;28;20029;-72
2022/01/29 03:55:48;;;;;;;54.17;21.15;;;;;;;5.28;96.84;102561.03;5023121;28;20025;-77
2022/01/29 03:58:14;;;;;;;51.60;22.00;;;;;;;5.30;97.17;102559.16;5007734;28;20444;-73
2022/01/29 04:00:39;;;;;;;51.75;20.33;;;;;;;5.33;96.68;102564.50;5019886;28;20160;-79
2022/01/29 04:03:04;;;;;;;54.58;21.55;;;;;;;5.34;97.07;102557.28;5027059;28;20440;-78
2022/01/29 04:05:30;;;;;;;53.22;21.63;;;;;;;5.33;96.96;102561.81;5026335;28;20025;-79
2022/01/29 04:07:55;;;;;;;45.08;19.30;;;;;;;5.34;97.08;102558.16;5020967;28;20054;-73
2022/01/29 04:10:22;;;;;;;46.63;18.77;;;;;;;5.37;97.18;102555.41;5018753;28;20116;-78
2022/01/29 04:12:50;;;;;;;59.30;21.90;;;;;;;5.37;97.02;102562.63;5017772;28;20041;-80
2022/01/29 04:15:16;;;;;;;57.22;21.05;;;;;;;5.33;96.86;102553.69;5024425;28;20025;-78
2022/01/29 04:17:41;;;;;;;53.55;20.05;;;;;;;5.37;96.97;102558.09;5026983;28;20740;-78
2022/01/29 04:20:07;;;;;;;46.85;20.85;;;;;;;5.40;97.13;102548.16;5026204;28;20029;-79
2022/01/29 04:22:32;;;;;;;51.00;19.52;;;;;;;5.40;97.28;102543.63;5017712;28;20037;-72
2022/01/29 04:24:58;;;;;;;47.78;19.63;;;;;;;5.43;97.21;102550.78;5020749;28;20029;-78
2022/01/29 04:27:33;;;;;;;42.05;19.35;;;;;;;5.43;96.93;102545.41;5026584;28;20071;-80
2022/01/29 04:30:01;;;;;;;49.47;20.60;;;;;;;5.43;97.02;102534.59;5009594;28;20413;-78
2022/01/29 04:32:54;;;;;;;47.53;19.02;;;;;;;5.45;96.84;102533.63;5020499;28;20030;-72
2022/01/29 04:35:12;;;;;;;48.33;19.17;;;;;;;5.44;96.95;102530.97;5023172;28;20030;-78
2022/01/29 04:37:37;;;;;;;41.92;18.73;;;;;;;5.47;97.14;102537.19;5025170;28;20409;-73
2022/01/29 04:40:03;;;;;;;48.53;20.73;;;;;;;5.50;97.25;102534.44;5021669;28;20022;-77
2022/01/29 04:42:29;;;;;;;48.95;19.13;;;;;;;5.50;97.23;102528.09;5025269;28;20025;-77
2022/01/29 04:44:54;;;;;;;48.35;21.05;;;;;;;5.54;97.06;102524.41;5024591;28;20091;-79
2022/01/29 04:47:19;;;;;;;48.08;20.52;;;;;;;5.54;97.36;102517.19;5026721;28;20030;-79
2022/01/29 04:49:44;;;;;;;44.05;19.52;;;;;;;5.56;97.41;102523.47;5027728;28;20045;-78
2022/01/29 04:52:10;;;;;;;48.40;18.95;;;;;;;5.60;97.45;102524.28;5024912;28;20052;-73
2022/01/29 04:54:35;;;;;;;47.95;18.65;;;;;;;5.61;97.17;102521.53;5026070;28;20033;-78
2022/01/29 04:57:00;;;;;;;48.42;19.77;;;;;;;5.63;97.16;102518.78;5018616;28;20037;-78
2022/01/29 04:59:26;;;;;;;48.70;19.70;;;;;;;5.66;97.47;102520.53;5012214;28;20037;-78
2022/01/29 05:01:51;;;;;;;51.40;18.75;;;;;;;5.67;97.73;102508.81;5019542;28;20048;-78
2022/01/29 05:04:18;;;;;;;46.28;20.15;;;;;;;5.67;97.53;102506.09;5019498;28;20026;-78
2022/01/29 05:06:43;;;;;;;46.20;18.83;;;;;;;5.67;97.35;102498.91;5026216;28;20059;-73
2022/01/29 05:09:09;;;;;;;51.40;20.05;;;;;;;5.69;97.22;102505.16;5030580;28;20017;-73
2022/01/29 05:11:35;;;;;;;52.58;21.08;;;;;;;5.72;97.52;102504.19;5023570;28;20072;-77
2022/01/29 05:14:02;;;;;;;51.60;21.83;;;;;;;5.75;97.48;102499.59;5021066;28;20493;-77
2022/01/29 05:27:27;;;;;;;52.72;21.92;;;;;;;5.82;97.42;102486.81;5026988;28;20037;-75
2022/01/29 05:29:52;;;;;;;52.17;22.05;;;;;;;5.82;97.44;102473.28;5013795;28;20469;-78
2022/01/29 05:32:18;;;;;;;48.90;20.05;;;;;;;5.84;97.53;102476.88;5014072;28;20084;-74
2022/01/29 05:34:43;;;;;;;59.55;22.50;;;;;;;5.86;97.19;102477.69;5029975;28;20028;-78
2022/01/29 05:37:08;;;;;;;51.78;21.38;;;;;;;5.85;97.42;102489.44;5027474;28;20028;-73
2022/01/29 05:39:34;;;;;;;61.70;22.73;;;;;;;5.87;97.59;102480.38;5025946;28;20064;-78
2022/01/29 05:41:59;;;;;;;53.05;21.17;;;;;;;5.91;97.77;102488.38;5018339;28;20570;-78
2022/01/29 05:44:25;;;;;;;49.50;23.05;;;;;;;5.92;97.37;102492.88;5014077;28;20042;-78
2022/01/29 05:46:51;;;;;;;51.50;21.13;;;;;;;5.94;97.81;102483.81;5029335;28;20064;-78
2022/01/29 05:49:16;;;;;;;59.17;23.13;;;;;;;5.96;97.70;102470.25;5028085;28;20423;-78
2022/01/29 05:51:41;;;;;;;57.72;22.95;;;;;;;5.98;97.57;102466.59;5027147;28;20455;-78
2022/01/29 05:54:07;;;;;;;51.65;22.00;;;;;;;5.98;97.72;102469.31;5017085;28;20036;-80
2022/01/29 05:56:32;;;;;;;57.53;22.90;;;;;;;6.01;97.38;102468.31;5017495;28;20034;-73
2022/01/29 05:58:57;;;;;;;57.10;23.45;;;;;;;6.01;nan;102465.63;5009182;28;20029;-79
2022/01/29 06:01:23;;;;;;;64.40;25.85;;;;;;;6.04;97.88;102461.03;5027639;28;20440;-78
2022/01/29 06:03:49;;;;;;;59.03;24.02;;;;;;;6.07;97.84;102463.66;5027486;28;20033;-78
2022/01/29 06:06:14;;;;;;;63.15;23.85;;;;;;;6.07;97.74;102463.66;5027982;28;20052;-79
2022/01/29 06:08:40;;;;;;;55.17;21.92;;;;;;;6.09;97.66;102459.09;5023607;28;20037;-78
2022/01/29 06:11:05;;;;;;;52.70;22.00;;;;;;;6.12;97.45;102460.81;5018455;28;20064;-78
2022/01/29 06:13:30;;;;;;;55.17;23.95;;;;;;;6.14;97.80;102464.34;5019870;28;20030;-78
2022/01/29 06:15:56;;;;;;;62.13;24.75;;;;;;;6.18;97.60;102448.94;5027681;28;20029;-78
2022/01/29 06:18:25;;;;;;;61.80;25.02;;;;;;;6.20;97.78;102455.19;5027456;28;20021;-77
2022/01/29 06:20:57;;;;;;;57.03;24.83;;;;;;;6.21;97.65;102447.06;5028301;28;20029;-80
2022/01/29 06:23:33;;;;;;;63.40;24.60;;;;;;;6.22;97.68;102445.25;5011954;28;20086;-79
2022/01/29 06:26:04;;;;;;;59.03;24.25;;;;;;;6.26;97.42;102452.31;5026457;28;20029;-78
2022/01/29 06:28:30;;;;;;;61.25;26.70;;;;;;;6.29;97.28;102445.00;5009717;28;20032;-73
2022/01/29 06:30:55;;;;;;;56.67;24.02;;;;;;;6.30;97.25;102454.03;5015440;28;20473;-73
2022/01/29 06:33:21;;;;;;;56.67;24.83;;;;;;;6.33;97.43;102445.78;5017794;28;20081;-78
2022/01/29 06:35:47;;;;;;;60.75;24.70;;;;;;;6.34;97.46;102448.47;5025975;28;20029;-78
2022/01/29 06:38:14;;;;;;;61.67;24.70;;;;;;;6.37;97.71;102448.38;5016265;28;20087;-80
2022/01/29 06:40:41;;;;;;;54.33;22.83;;;;;;;6.35;97.30;102439.44;5022137;28;20057;-78
2022/01/29 06:43:07;;;;;;;60.35;25.45;;;;;;;6.41;97.33;102442.88;5022554;28;20031;-79
2022/01/29 06:45:35;;;;;;;59.47;24.40;;;;;;;6.41;97.45;102437.47;5019161;28;20478;-78
2022/01/29 06:48:00;;;;;;;60.20;25.00;;;;;;;6.43;97.34;102432.91;5027674;28;20572;-78
2022/01/29 06:50:26;;;;;;;60.88;25.60;;;;;;;6.38;97.32;102417.69;5028034;28;20108;-73
2022/01/29 06:52:52;;;;;;;52.58;23.88;;;;;;;6.47;97.69;102430.06;5021109;28;20049;-78
2022/01/29 06:55:18;;;;;;;60.67;25.08;;;;;;;6.48;97.11;102431.84;5019351;28;20514;-77
2022/01/29 06:57:43;;;;;;;60.75;28.02;;;;;;;6.52;97.39;102429.91;5010706;28;20049;-79
2022/01/29 07:00:09;;;;;;;55.17;24.52;;;;;;;6.52;97.60;102417.28;5016470;28;20095;-78
2022/01/29 07:02:35;;;;;;;57.05;24.38;;;;;;;6.56;97.34;102410.84;5028179;28;20045;-74
2022/01/29 07:05:05;;;;;;;50.85;24.42;;;;;;;6.57;97.24;102415.31;5027792;28;20109;-79
2022/01/29 07:07:30;;;;;;;59.35;26.52;;;;;;;6.60;97.49;102407.13;5022627;28;20037;-79
2022/01/29 07:09:56;;;;;;;60.17;26.15;;;;;;;6.62;97.20;102407.06;5020838;28;20080;-80
2022/01/29 07:12:22;;;;;;;57.33;24.15;;;;;;;6.64;97.30;102408.81;5023902;28;20539;-74
2022/01/29 07:14:49;;;;;;;54.38;22.98;;;;;;;6.66;97.53;102408.75;5014595;28;20029;-73
2022/01/29 07:17:17;;;;;;;51.60;23.33;;;;;;;6.69;97.45;102402.38;5027934;28;20025;-73
2022/01/29 07:19:44;;;;;;;57.47;26.23;;;;;;;6.68;97.34;102409.59;5026906;28;20134;-78
2022/01/29 07:22:09;;;;;;;61.00;26.58;;;;;;;6.70;97.43;102401.44;5025907;28;20025;-78
2022/01/29 07:24:36;;;;;;;52.35;23.55;;;;;;;6.73;97.82;102410.34;5015588;28;20292;-78
2022/01/29 07:27:02;;;;;;;59.58;25.02;;;;;;;6.73;97.38;102409.47;5026791;28;20068;-77
2022/01/29 07:29:27;;;;;;;54.30;23.80;;;;;;;6.73;97.56;102404.94;5012647;28;20096;-77
2022/01/29 07:31:53;;;;;;;59.55;25.58;;;;;;;6.74;98.01;102404.00;5023107;28;20029;-73
2022/01/29 07:34:18;;;;;;;51.58;23.23;;;;;;;6.78;97.66;102407.50;5013591;28;20033;-78
2022/01/29 07:36:44;;;;;;;50.83;22.88;;;;;;;6.79;97.99;102409.25;5020967;28;20060;-74
2022/01/29 07:39:09;;;;;;;53.28;24.05;;;;;;;6.80;97.42;102408.31;5023540;28;20403;-73
2022/01/29 07:41:35;;;;;;;51.72;23.35;;;;;;;6.81;97.54;102405.59;5018350;28;20086;-78
2022/01/29 07:44:00;;;;;;;52.17;24.75;;;;;;;6.83;97.93;102395.59;5016244;28;20082;-78
2022/01/29 07:46:26;;;;;;;51.78;23.48;;;;;;;6.86;97.76;102400.03;5024787;28;20033;-76
2022/01/29 07:48:51;;;;;;;52.10;24.75;;;;;;;6.88;98.06;102393.63;5025800;28;20424;-78
2022/01/29 07:51:16;;;;;;;52.75;23.05;;;;;;;6.92;97.77;102399.81;5022826;28;20091;-73
2022/01/29 07:53:41;;;;;;;50.95;23.45;;;;;;;6.94;97.79;102397.06;5026617;28;20021;-78
2022/01/29 07:56:07;;;;;;;50.17;24.27;;;;;;;6.96;97.57;102396.09;5016562;28;20041;-72
2022/01/29 07:58:32;;;;;;;53.92;23.77;;;;;;;6.98;97.82;102399.63;5008431;28;20389;-74
2022/01/29 08:00:58;;;;;;;49.05;23.65;;;;;;;7.00;98.12;102395.06;5016540;28;20081;-78
2022/01/29 08:03:23;;;;;;;49.35;22.35;;;;;;;7.01;98.25;102388.69;5006616;28;20029;-77
2022/01/29 08:05:48;;;;;;;47.28;22.40;;;;;;;7.04;98.10;102387.69;5006125;28;20398;-78
2022/01/29 08:08:13;;;;;;;45.72;21.00;;;;;;;7.06;nan;102380.44;5017478;28;20030;-79
2022/01/29 08:10:39;;;;;;;50.58;21.70;;;;;;;7.09;98.10;102374.94;5015269;28;20032;-79
2022/01/29 08:13:04;;;;;;;51.35;23.65;;;;;;;7.11;97.74;102383.88;5016166;28;20096;-79
2022/01/29 08:15:29;;;;;;;50.05;23.92;;;;;;;7.14;98.15;102383.78;5015376;28;20029;-77
2022/01/29 08:17:55;;;;;;;55.53;23.73;;;;;;;7.20;96.91;102379.97;5016004;28;20031;-77
2022/01/29 08:20:20;;;;;;;46.25;21.33;;;;;;;7.22;97.41;102367.25;5017458;28;20045;-73
2022/01/29 08:22:47;;;;;;;44.25;23.00;;;;;;;7.26;97.69;102363.53;5005668;28;20110;-77
2022/01/29 08:25:13;;;;;;;51.42;21.08;;;;;;;7.27;97.72;102357.16;5019005;28;20018;-72
2022/01/29 08:27:38;;;;;;;45.92;22.60;;;;;;;7.31;97.50;102348.00;5020618;28;20052;-71
2022/01/29 08:30:04;;;;;;;47.13;20.20;;;;;;;7.34;97.24;102364.16;5017279;28;20022;-77
2022/01/29 08:32:30;;;;;;;43.83;20.83;;;;;;;7.34;97.28;102356.91;5024166;28;20024;-77
2022/01/29 08:34:55;;;;;;;41.50;20.63;;;;;;;7.39;97.07;102354.03;5021159;28;20481;-78
2022/01/29 08:37:20;;;;;;;41.25;19.83;;;;;;;7.41;97.11;102352.16;5019720;28;20072;-77
2022/01/29 08:39:45;;;;;;;42.13;21.73;;;;;;;7.44;96.87;102343.03;5022332;28;20029;-76
2022/01/29 08:42:11;;;;;;;44.80;20.02;;;;;;;7.46;97.32;102335.75;5023542;28;20067;-78
2022/01/29 08:44:36;;;;;;;40.40;20.90;;;;;;;7.50;96.96;102342.81;5019868;28;20092;-78
2022/01/29 08:47:02;;;;;;;41.38;20.88;;;;;;;7.53;96.88;102345.44;5010761;28;20029;-77
2022/01/29 08:49:27;;;;;;;39.78;20.05;;;;;;;7.54;97.13;102339.94;5023516;28;20079;-77
2022/01/29 08:51:53;;;;;;;41.00;19.77;;;;;;;7.57;96.83;102336.25;5004523;28;20041;-74
2022/01/29 08:54:18;;;;;;;39.50;19.13;;;;;;;7.62;96.96;102353.22;5012470;28;20025;-78
2022/01/29 08:56:44;;;;;;;41.35;20.13;;;;;;;7.62;96.72;102343.28;5012117;28;20057;-77
2022/01/29 08:59:09;;;;;;;38.70;18.95;;;;;;;7.64;96.33;102329.66;5008488;28;20116;-77
2022/01/29 09:01:34;;;;;;;36.08;18.25;;;;;;;7.67;96.22;102340.41;5021104;28;20775;-77
2022/01/29 09:04:00;;;;;;;42.47;22.83;;;;;;;7.67;96.55;102334.97;5025121;28;20018;-78
2022/01/29 09:06:25;;;;;;;48.05;20.42;;;;;;;7.69;96.77;102330.38;5016015;28;20029;-72
2022/01/29 09:08:51;;;;;;;45.58;20.63;;;;;;;7.71;96.65;102328.53;5022913;28;20017;-77
2022/01/29 09:11:18;;;;;;;38.92;20.67;;;;;;;7.75;96.21;102326.59;5019113;28;20022;-77
2022/01/29 09:13:44;;;;;;;39.55;19.27;;;;;;;7.78;96.25;102321.91;5010633;28;20390;-72
2022/01/29 09:16:09;;;;;;;45.25;22.55;;;;;;;7.83;96.41;102319.94;5018845;28;20033;-77
2022/01/29 09:18:35;;;;;;;40.28;20.10;;;;;;;7.85;96.06;102315.34;5024762;28;20542;-78
2022/01/29 09:21:00;;;;;;;37.35;19.13;;;;;;;7.89;96.30;102333.25;5023996;28;20021;-73
2022/01/29 09:23:26;;;;;;;38.97;19.20;;;;;;;7.92;96.39;102316.84;5009014;28;20087;-74
2022/01/29 09:25:52;;;;;;;34.60;19.00;;;;;;;7.95;95.84;102315.88;5005308;28;20026;-77
2022/01/29 09:28:17;;;;;;;36.00;18.52;;;;;;;7.99;95.72;102313.94;5009801;28;20044;-77
2022/01/29 09:30:44;;;;;;;41.88;18.60;;;;;;;8.01;95.96;102317.47;5008465;28;20030;-74
2022/01/29 09:33:10;;;;;;;40.60;20.40;;;;;;;8.03;95.57;102310.19;5007470;28;20034;-80
2022/01/29 09:35:38;;;;;;;37.05;20.30;;;;;;;8.08;95.26;102317.19;5019685;28;20397;-73
2022/01/29 09:38:04;;;;;;;40.22;19.95;;;;;;;8.11;95.53;102321.59;5011653;28;20022;-78
2022/01/29 09:40:29;;;;;;;37.42;20.38;;;;;;;8.16;95.59;102327.75;5014736;28;20425;-77
2022/01/29 09:42:56;;;;;;;33.53;18.13;;;;;;;8.21;95.20;102320.31;5019556;28;20017;-77
2022/01/29 09:45:22;;;;;;;36.15;18.40;;;;;;;8.25;94.81;102329.19;5022890;28;20041;-73
2022/01/29 09:47:48;;;;;;;35.45;19.23;;;;;;;8.26;95.26;102323.72;5021368;28;20025;-78
2022/01/29 09:50:16;;;;;;;36.78;19.05;;;;;;;8.30;94.81;102321.75;5020406;28;20397;-73
2022/01/29 09:52:42;;;;;;;33.92;16.98;;;;;;;8.31;94.25;102324.41;5022220;28;20108;-77
2022/01/29 09:55:08;;;;;;;38.38;19.35;;;;;;;8.32;94.19;102326.19;5019234;28;20156;-78
2022/01/29 09:57:33;;;;;;;35.58;18.30;;;;;;;8.34;94.66;102334.25;5028389;28;20029;-78
2022/01/29 09:59:59;;;;;;;29.77;16.80;;;;;;;8.34;94.20;102321.56;5015757;28;20501;-72
2022/01/29 10:02:24;;;;;;;35.05;17.13;;;;;;;8.36;94.43;102318.81;5023731;28;20045;-78
2022/01/29 10:04:55;;;;;;;34.25;17.20;;;;;;;8.43;94.05;102325.78;5023476;28;20021;-74
2022/01/29 10:07:22;;;;;;;31.63;17.17;;;;;;;8.45;94.37;102321.19;5014744;28;20481;-78
2022/01/29 10:09:47;;;;;;;31.38;16.10;;;;;;;8.49;93.85;102320.13;5024895;28;20022;-77
2022/01/29 10:12:26;;;;;;;30.85;16.15;;;;;;;8.52;93.69;102319.13;5027499;28;20025;-77
2022/01/29 10:14:58;;;;;;;28.02;15.73;;;;;;;8.53;94.03;102319.03;5024140;28;20030;-73
2022/01/29 10:17:42;;;;;;;28.90;15.77;;;;;;;8.58;93.54;102314.34;5021594;28;20028;-78
2022/01/29 10:20:12;;;;;;;27.40;15.10;;;;;;;8.60;93.48;102309.72;5006699;28;20100;-77
2022/01/29 10:22:39;;;;;;;26.27;15.55;;;;;;;8.64;93.05;102315.91;5009066;28;20042;-72
2022/01/29 10:25:12;;;;;;;29.90;15.55;;;;;;;8.66;93.31;102297.72;5009109;28;20038;-77
2022/01/29 10:27:38;;;;;;;22.55;14.20;;;;;;;8.71;93.04;102303.84;5020707;28;20491;-72
2022/01/29 10:30:04;;;;;;;30.52;15.02;;;;;;;8.76;92.87;102293.69;5013488;28;20104;-76
2022/01/29 10:32:29;;;;;;;26.60;14.98;;;;;;;8.84;93.31;102288.81;5028485;28;20029;-73
2022/01/29 10:34:56;;;;;;;27.45;15.52;;;;;;;8.93;92.79;102280.28;5022078;28;20036;-77
2022/01/29 10:37:23;;;;;;;26.98;14.98;;;;;;;8.98;92.16;102268.38;5026076;28;20699;-78
2022/01/29 10:39:54;;;;;;;23.65;14.68;;;;;;;9.01;91.96;102269.13;5021231;28;20087;-78
2022/01/29 10:42:27;;;;;;;23.10;13.77;;;;;;;9.04;91.75;102274.41;5027959;28;20071;-73
2022/01/29 10:45:02;;;;;;;22.83;12.77;;;;;;;9.08;91.40;102267.00;5020777;28;20029;-78
2022/01/29 10:47:31;;;;;;;19.50;11.65;;;;;;;9.13;91.50;102262.25;5026396;28;20025;-77
2022/01/29 10:50:05;;;;;;;25.02;12.30;;;;;;;9.17;91.44;102264.78;5018569;28;20029;-77
2022/01/29 10:52:33;;;;;;;18.40;11.90;;;;;;;9.22;90.95;102252.84;5025973;28;20441;-78
2022/01/29 10:55:07;;;;;;;20.58;11.35;;;;;;;9.24;91.10;102268.13;5024266;28;20044;-74
2022/01/29 10:57:40;;;;;;;17.27;10.80;;;;;;;9.30;90.57;102266.97;5014085;28;20474;-77
2022/01/29 11:00:18;;;;;;;20.33;10.57;;;;;;;9.35;90.45;102260.38;5025702;28;20056;-78
2022/01/29 11:02:44;;;;;;;16.98;10.43;;;;;;;9.35;89.91;102263.09;5023744;28;20084;-78
2022/01/29 11:05:10;;;;;;;15.43;10.00;;;;;;;9.37;90.21;102252.16;5026709;28;20029;-77
2022/01/29 11:07:36;;;;;;;14.02;9.27;;;;;;;9.40;89.42;102250.19;5019494;28;20033;-77
2022/01/29 11:10:06;;;;;;;15.65;9.48;;;;;;;9.39;89.17;102237.56;5024567;28;20037;-77
2022/01/29 11:12:32;;;;;;;18.95;10.55;;;;;;;9.43;88.94;102246.47;5027109;28;20037;-77
2022/01/29 11:15:00;;;;;;;14.32;8.45;;;;;;;9.45;89.06;102247.25;5011898;28;20034;-77
2022/01/29 11:17:31;;;;;;;12.32;7.60;;;;;;;9.45;89.11;102241.81;5017658;28;20424;-79
2022/01/29 11:19:57;;;;;;;12.43;7.65;;;;;;;9.43;88.66;102236.47;5028014;28;20021;-74
2022/01/29 11:22:27;;;;;;;13.50;8.38;;;;;;;9.45;88.89;102237.28;5018121;28;20018;-78
2022/01/29 11:25:01;;;;;;;12.98;7.93;;;;;;;9.46;88.73;102224.56;5018762;28;20025;-78